Flugplatz Reichelsheim

Für EDFB sind keine METAR/TAF Berichte vorhanden.
Es werden die Flugwettermeldungen vom Flugplatz Frankfurt am Main International in 40 km Entfernung angezeigt.

Bericht für EDDF

vom 21.07. um 20:50 UTC

Wind 6 kt aus 20°

Sichtweite 10 km oder mehr

gute Sicht, keine Wolken < 5000 ft, keine CB, keine Wettererscheinungen (CAVOK)

Temperatur 24.0°C

Taupunkt 12.0°C

Luftfeuchtigkeit 47%

Luftdruck 1023 hPa

keine wesentliche Wetteränderung innerhalb den nächsten 2 Stunden zu erwarten

EDDF 212050Z 02006KT 350V050 CAVOK 24/12 Q1023 NOSIG

Prognose für EDDF

vom 21.07. um 00:00 UTC

Zwischen 00:00 UTC und 00:00 UTC

Wind 5 kt aus 20°

Sichtweite 10 km oder mehr

keine signifikanten Wettererscheinungen

keine Wolken


Zwischen 00:00 und 00:00 UTC übergehend zu

variable Windrichtung mit 3 kt

Sichtweite 10 km oder mehr

keine signifikanten Wettererscheinungen

keine Wolken


Am 22.07. zwischen 00:00 und 00:00 UTC übergehend zu

Wind 6 kt aus 260°

Sichtweite 10 km oder mehr

keine signifikanten Wettererscheinungen

keine Wolken


Am 22.07. zwischen 00:00 und 00:00 UTC übergehend zu

Wind 3 kt aus 40°

Sichtweite 10 km oder mehr

keine signifikanten Wettererscheinungen

keine Wolken

TAF AMD EDDF 211903Z 2119/2224 02005KT CAVOK BECMG 2120/2122 VRB03KT BECMG 2209/2211 26006KT BECMG 2217/2219 04003KT
Impressum